Time;durP1;ratioP1;P1;durP2;ratioP2;P2;SDS_P1;SDS_P2;PMS_P1;PMS_P2;Temp;Humidity;BMP_temperature;BMP_pressure;BME280_temperature;BME280_humidity;BME280_pressure;Samples;Min_cycle;Max_cycle;Signal;HPM_P1;HPM_P2
2021/05/20 00:00:23;;;;;;;1.67;0.60;;;;;;;11.55;60.60;99154.44;5091927;28;41145;-78
2021/05/20 00:02:51;;;;;;;1.23;0.70;;;;;;;11.51;60.37;99163.53;5091405;28;41667;-77
2021/05/20 00:05:19;;;;;;;3.37;1.00;;;;;;;11.42;60.76;99158.78;5109721;27;41737;-78
2021/05/20 00:07:47;;;;;;;0.90;0.73;;;;;;;11.40;60.90;99161.53;5109537;27;40056;-78
2021/05/20 00:10:15;;;;;;;1.90;0.87;;;;;;;11.35;60.71;99168.09;5108295;28;41864;-77
2021/05/20 00:12:45;;;;;;;1.67;0.63;;;;;;;11.20;60.99;99155.75;5108178;28;42733;-77
2021/05/20 00:15:15;;;;;;;1.63;0.77;;;;;;;11.22;61.66;99157.38;5108422;28;41921;-77
2021/05/20 00:17:42;;;;;;;0.60;0.50;;;;;;;11.16;61.12;99152.41;5092051;28;38898;-78
2021/05/20 00:20:10;;;;;;;1.47;0.80;;;;;;;11.19;61.22;99159.34;5108113;28;41710;-77
2021/05/20 00:22:37;;;;;;;0.60;0.50;;;;;;;11.12;61.03;99145.63;5110274;27;42779;-78
2021/05/20 00:25:05;;;;;;;1.20;0.80;;;;;;;10.99;61.31;99134.91;5091282;28;40906;-77
2021/05/20 00:27:32;;;;;;;1.03;0.60;;;;;;;11.09;61.01;99154.59;5110121;27;40485;-77
2021/05/20 00:30:10;;;;;;;1.20;0.70;;;;;;;11.08;60.97;99160.84;5141083;27;41864;-78
2021/05/20 00:32:37;;;;;;;1.07;0.77;;;;;;;11.03;61.29;99173.50;5110177;27;43408;-77
2021/05/20 00:35:06;;;;;;;1.07;0.70;;;;;;;10.91;61.26;99158.31;5107144;28;42939;-77
2021/05/20 00:37:34;;;;;;;0.97;0.80;;;;;;;10.89;61.25;99162.00;5107620;28;40902;-77
2021/05/20 00:40:01;;;;;;;1.70;0.77;;;;;;;10.80;61.57;99160.75;5108112;28;42567;-77
2021/05/20 00:42:28;;;;;;;0.60;0.60;;;;;;;10.79;61.30;99164.34;5108462;28;42105;-77
2021/05/20 00:44:57;;;;;;;1.70;0.90;;;;;;;10.76;61.33;99167.16;5090680;28;41157;-77
2021/05/20 00:47:27;;;;;;;1.70;0.67;;;;;;;10.71;61.55;99171.91;5091094;28;40007;-77
2021/05/20 00:49:54;;;;;;;0.80;0.80;;;;;;;10.66;61.42;99163.34;5108144;28;41895;-78
2021/05/20 00:52:21;;;;;;;0.90;0.60;;;;;;;10.60;61.64;99163.72;5108050;28;43796;-77
2021/05/20 00:54:50;;;;;;;2.10;0.70;;;;;;;10.58;61.87;99181.50;5109262;27;42248;-77
2021/05/20 00:57:19;;;;;;;0.60;0.60;;;;;;;10.48;62.08;99164.41;5108110;27;39613;-77
2021/05/20 00:59:48;;;;;;;1.07;1.00;;;;;;;10.51;62.21;99169.56;5105371;28;41542;-77
2021/05/20 01:02:15;;;;;;;0.83;0.80;;;;;;;10.46;62.39;99176.91;5137882;27;42728;-77
2021/05/20 01:04:44;;;;;;;0.63;0.60;;;;;;;10.31;62.35;99163.56;5106258;28;42747;-78
2021/05/20 01:07:11;;;;;;;1.00;0.70;;;;;;;10.40;62.81;99172.78;5088458;28;39068;-77
2021/05/20 01:09:38;;;;;;;1.43;0.90;;;;;;;10.21;62.97;99151.81;5108255;27;42410;-78
2021/05/20 01:12:07;;;;;;;0.60;0.60;;;;;;;10.34;62.86;99167.84;5103960;28;43461;-77
2021/05/20 01:14:38;;;;;;;2.23;0.80;;;;;;;10.30;64.08;99169.81;5090819;28;41143;-78
2021/05/20 01:17:06;;;;;;;1.47;0.90;;;;;;;10.28;63.85;99179.63;5106969;28;40643;-77
2021/05/20 01:19:35;;;;;;;0.93;0.83;;;;;;;10.26;63.66;99181.50;5090660;28;41779;-77
2021/05/20 01:22:03;;;;;;;0.90;0.90;;;;;;;10.19;63.52;99172.22;5107917;27;43586;-77
2021/05/20 01:24:31;;;;;;;2.60;0.70;;;;;;;10.25;63.28;99190.41;5106595;28;42168;-78
2021/05/20 01:26:58;;;;;;;1.67;0.83;;;;;;;10.22;63.20;99189.72;5106071;28;41420;-77
2021/05/20 01:29:25;;;;;;;0.80;0.63;;;;;;;10.19;63.46;99196.03;5106670;27;41364;-78
2021/05/20 01:31:52;;;;;;;1.50;0.77;;;;;;;10.14;63.72;99186.63;5111142;28;43188;-77
2021/05/20 01:34:20;;;;;;;3.37;0.90;;;;;;;10.13;64.32;99193.69;5106740;28;41947;-78
2021/05/20 01:36:47;;;;;;;1.33;0.70;;;;;;;10.14;64.71;99192.75;5109175;28;40379;-78
2021/05/20 01:39:15;;;;;;;4.30;1.17;;;;;;;10.09;64.98;99184.22;5092353;28;41711;-77
2021/05/20 01:41:42;;;;;;;1.93;0.80;;;;;;;10.15;64.75;99190.94;5110785;28;42533;-77
2021/05/20 01:44:09;;;;;;;0.80;0.70;;;;;;;10.13;65.90;99190.19;5107289;28;42837;-77
2021/05/20 01:46:36;;;;;;;0.90;0.80;;;;;;;10.16;65.23;99195.31;5111008;28;39691;-77
2021/05/20 01:49:09;;;;;;;0.70;0.60;;;;;;;10.14;65.06;99187.44;5126666;27;41127;-78
2021/05/20 01:51:37;;;;;;;1.20;1.00;;;;;;;10.12;65.53;99186.69;5087809;28;41540;-77
2021/05/20 01:54:04;;;;;;;1.10;1.00;;;;;;;10.08;65.03;99183.38;5110679;27;42417;-77
2021/05/20 01:56:35;;;;;;;1.00;0.87;;;;;;;10.01;65.79;99181.16;5111646;27;40091;-77
2021/05/20 01:59:03;;;;;;;4.33;1.20;;;;;;;9.96;66.25;99180.53;5112361;27;41616;-77
2021/05/20 02:01:30;;;;;;;2.00;1.07;;;;;;;9.81;66.47;99166.34;5104492;28;43060;-78
2021/05/20 02:03:57;;;;;;;1.93;1.13;;;;;;;9.92;66.44;99193.06;5110337;28;41925;-77
2021/05/20 02:06:24;;;;;;;1.67;0.83;;;;;;;9.89;67.07;99192.41;5111169;27;39893;-77
2021/05/20 02:08:52;;;;;;;0.90;0.90;;;;;;;9.88;67.08;99188.03;5091599;28;40678;-78
2021/05/20 02:11:19;;;;;;;1.17;0.80;;;;;;;9.81;66.57;99184.00;5108075;27;42559;-77
2021/05/20 02:13:47;;;;;;;1.40;0.80;;;;;;;9.83;67.07;99187.44;5109649;28;41990;-77
2021/05/20 02:16:14;;;;;;;1.70;0.90;;;;;;;9.82;66.73;99193.66;5092299;28;40979;-77
2021/05/20 02:18:43;;;;;;;0.70;0.70;;;;;;;9.78;66.83;99192.09;5091872;28;40655;-76
2021/05/20 02:21:10;;;;;;;0.87;0.80;;;;;;;9.77;67.07;99198.34;5108722;28;42327;-77
2021/05/20 02:23:37;;;;;;;0.80;0.80;;;;;;;9.73;67.14;99198.50;5107067;27;42121;-77
2021/05/20 02:26:04;;;;;;;1.47;0.87;;;;;;;9.63;67.68;99186.72;5109917;27;39627;-77
2021/05/20 02:28:32;;;;;;;1.50;1.00;;;;;;;9.64;67.37;99193.69;5110082;28;41418;-77
2021/05/20 02:31:00;;;;;;;1.23;0.90;;;;;;;9.61;67.18;99204.47;5109367;28;42742;-77
2021/05/20 02:33:27;;;;;;;0.80;0.80;;;;;;;9.59;67.22;99201.03;5108102;28;41961;-77
2021/05/20 02:35:54;;;;;;;1.53;0.97;;;;;;;9.30;67.82;99156.75;5092534;28;38434;-77
2021/05/20 02:38:21;;;;;;;1.50;0.93;;;;;;;9.52;67.84;99198.81;5109107;28;42021;-77
2021/05/20 02:40:49;;;;;;;0.80;0.80;;;;;;;9.49;67.61;99199.81;5105981;27;42459;-76
2021/05/20 02:43:16;;;;;;;0.93;0.83;;;;;;;9.48;67.81;99202.53;5109731;27;42357;-77
2021/05/20 02:45:43;;;;;;;1.27;1.10;;;;;;;9.44;67.68;99203.63;5092926;28;40207;-77
2021/05/20 02:48:11;;;;;;;2.40;0.73;;;;;;;9.41;67.46;99201.97;5108802;28;42089;-77
2021/05/20 02:50:38;;;;;;;1.30;1.20;;;;;;;9.39;68.05;99203.88;5092589;28;41766;-77
2021/05/20 02:53:06;;;;;;;1.10;0.90;;;;;;;9.34;67.84;99190.03;5091824;28;42177;-77
2021/05/20 02:55:33;;;;;;;0.73;0.70;;;;;;;9.35;68.08;99205.81;5109615;28;40395;-77
2021/05/20 02:58:02;;;;;;;1.90;1.00;;;;;;;9.33;68.68;99199.75;5109831;28;42421;-76
2021/05/20 03:00:32;;;;;;;1.60;1.17;;;;;;;9.26;68.36;99192.25;5109630;27;42611;-77
2021/05/20 03:02:59;;;;;;;1.40;1.23;;;;;;;9.29;68.26;99205.25;5108559;28;42058;-77
2021/05/20 03:05:30;;;;;;;1.10;0.93;;;;;;;9.27;68.94;99204.50;5111730;27;20556;-77
2021/05/20 03:07:59;;;;;;;1.33;1.20;;;;;;;9.23;69.19;99197.66;5092416;28;41632;-77
2021/05/20 03:10:26;;;;;;;1.57;0.90;;;;;;;9.26;68.61;99208.09;5109181;28;42743;-77
2021/05/20 03:12:54;;;;;;;1.23;0.90;;;;;;;9.21;68.81;99192.47;5109054;28;42985;-75
2021/05/20 03:15:21;;;;;;;1.33;1.10;;;;;;;9.23;69.03;99202.97;5109389;28;39721;-78
2021/05/20 03:17:49;;;;;;;2.40;1.20;;;;;;;9.30;69.25;99199.06;5111351;27;41597;-78
2021/05/20 03:20:17;;;;;;;3.17;1.10;;;;;;;9.29;69.35;99197.34;5108780;28;42711;-77
2021/05/20 03:22:46;;;;;;;1.80;1.20;;;;;;;9.39;68.64;99209.16;5092808;28;41253;-77
2021/05/20 03:25:14;;;;;;;1.30;1.20;;;;;;;9.40;68.75;99205.56;5092171;28;40003;-76
2021/05/20 03:27:41;;;;;;;1.13;1.00;;;;;;;9.52;68.78;99215.50;5110752;27;41335;-76
2021/05/20 03:30:09;;;;;;;2.20;1.17;;;;;;;9.55;68.90;99212.69;5108284;28;43285;-76
2021/05/20 03:32:37;;;;;;;2.23;1.13;;;;;;;9.60;68.89;99221.25;5143796;27;42257;-77
2021/05/20 03:35:05;;;;;;;3.20;1.10;;;;;;;9.64;68.77;99225.44;5108487;28;40897;-76
2021/05/20 03:37:33;;;;;;;1.10;1.00;;;;;;;9.57;68.98;99216.13;5092424;28;41591;-76
2021/05/20 03:40:02;;;;;;;1.13;1.03;;;;;;;9.67;68.93;99233.19;5111761;28;43204;-76
2021/05/20 03:42:30;;;;;;;0.93;0.90;;;;;;;9.69;68.33;99231.34;5118186;28;42041;-76
2021/05/20 03:44:57;;;;;;;0.80;0.80;;;;;;;9.68;68.39;99234.91;5100011;28;39133;-76
2021/05/20 03:47:25;;;;;;;2.70;1.07;;;;;;;9.67;68.27;99240.28;5116341;28;42412;-75
2021/05/20 03:49:52;;;;;;;0.93;0.80;;;;;;;9.68;68.18;99242.00;5116613;28;41869;-76
2021/05/20 03:52:19;;;;;;;1.10;1.00;;;;;;;9.64;67.98;99233.34;5117903;27;42425;-75
2021/05/20 03:54:46;;;;;;;2.40;1.00;;;;;;;9.75;67.91;99243.41;5096338;28;40689;-76
2021/05/20 03:57:14;;;;;;;3.10;1.00;;;;;;;9.82;67.69;99254.50;5108773;28;41647;-76
2021/05/20 03:59:41;;;;;;;1.10;1.00;;;;;;;9.89;67.38;99245.31;5108529;28;42117;-76
2021/05/20 04:02:09;;;;;;;1.37;0.80;;;;;;;10.00;67.35;99248.22;5109933;27;42063;-76
2021/05/20 04:04:36;;;;;;;2.27;1.07;;;;;;;10.10;66.92;99254.72;5142158;27;39925;-77
2021/05/20 04:07:03;;;;;;;1.20;1.10;;;;;;;10.19;66.92;99259.56;5108978;28;42207;-75
2021/05/20 04:09:30;;;;;;;0.93;0.90;;;;;;;10.23;66.98;99249.66;5109491;27;42689;-76
2021/05/20 04:12:01;;;;;;;1.43;1.10;;;;;;;10.33;66.90;99259.66;5092060;28;41370;-76
2021/05/20 04:14:29;;;;;;;1.17;1.07;;;;;;;10.35;66.88;99262.22;5108710;28;39857;-76
2021/05/20 04:16:57;;;;;;;1.00;0.90;;;;;;;10.41;66.82;99265.38;5087144;28;40472;-76
2021/05/20 04:19:24;;;;;;;2.13;1.20;;;;;;;10.38;67.13;99254.13;5088184;28;43432;-76
2021/05/20 04:21:51;;;;;;;1.67;1.07;;;;;;;10.53;67.42;99262.97;5070885;28;41455;-77
2021/05/20 04:24:21;;;;;;;1.90;1.47;;;;;;;10.61;67.29;99266.06;5094840;28;40580;-76
2021/05/20 04:26:48;;;;;;;1.20;1.00;;;;;;;10.70;67.21;99281.44;5108756;28;42521;-76
2021/05/20 04:29:15;;;;;;;1.17;1.07;;;;;;;10.79;66.95;99275.63;5090647;28;42955;-76
2021/05/20 04:31:43;;;;;;;1.57;1.43;;;;;;;10.90;67.16;99283.81;5108544;28;41910;-76
2021/05/20 04:34:11;;;;;;;1.30;1.20;;;;;;;10.98;67.21;99281.59;5107806;27;39838;-77
2021/05/20 04:36:38;;;;;;;3.03;1.37;;;;;;;11.06;66.89;99282.00;5109710;27;41834;-76
2021/05/20 04:39:06;;;;;;;1.53;1.30;;;;;;;11.13;66.90;99272.72;5087208;28;41668;-76
2021/05/20 04:41:33;;;;;;;2.13;1.50;;;;;;;11.21;66.74;99266.16;5070675;28;41438;-76
2021/05/20 04:44:00;;;;;;;2.50;1.57;;;;;;;11.28;66.72;99275.44;5086444;28;40074;-76
2021/05/20 04:46:27;;;;;;;1.73;1.07;;;;;;;11.38;66.42;99273.94;5089311;28;41649;-76
2021/05/20 04:48:55;;;;;;;2.27;1.23;;;;;;;11.47;66.47;99284.03;5070244;28;42218;-76
2021/05/20 04:51:22;;;;;;;1.80;1.13;;;;;;;11.55;66.40;99280.91;5104048;28;42274;-77
2021/05/20 04:53:50;;;;;;;1.37;1.23;;;;;;;11.65;66.40;99282.91;5108239;28;39578;-77
2021/05/20 04:56:22;;;;;;;2.20;1.83;;;;;;;11.65;66.11;99272.31;5107943;28;41051;-76
2021/05/20 04:58:49;;;;;;;1.87;1.30;;;;;;;11.78;65.95;99288.38;5107994;28;43311;-78
2021/05/20 05:01:16;;;;;;;1.40;1.20;;;;;;;11.79;66.02;99282.13;5090787;28;41328;-77
2021/05/20 05:03:44;;;;;;;1.30;1.20;;;;;;;11.91;65.89;99293.78;5108515;27;39911;-76
2021/05/20 05:06:12;;;;;;;1.33;1.23;;;;;;;11.97;66.15;99291.63;5109742;28;42424;-76
2021/05/20 05:08:39;;;;;;;1.60;1.50;;;;;;;12.05;66.00;99307.94;5093881;28;43094;-77
2021/05/20 05:11:06;;;;;;;1.13;1.07;;;;;;;12.09;65.71;99308.59;5111663;28;41071;-77
2021/05/20 05:13:33;;;;;;;1.93;1.10;;;;;;;12.18;65.83;99308.03;5094523;28;39293;-78
2021/05/20 05:16:00;;;;;;;2.13;1.70;;;;;;;12.28;65.53;99306.50;5093412;28;41748;-76
2021/05/20 05:18:27;;;;;;;1.63;1.40;;;;;;;12.37;65.13;99308.59;5111553;28;42755;-77
2021/05/20 05:20:55;;;;;;;1.47;1.10;;;;;;;12.48;64.82;99316.75;5110414;28;41074;-77
2021/05/20 05:23:23;;;;;;;1.40;1.30;;;;;;;12.56;65.04;99314.47;5111017;27;40623;-77
2021/05/20 05:25:51;;;;;;;1.60;1.47;;;;;;;12.56;64.87;99306.50;5109501;28;42288;-77
2021/05/20 05:28:18;;;;;;;2.13;1.70;;;;;;;12.65;64.45;99318.31;5111221;28;43539;-76
2021/05/20 05:30:46;;;;;;;1.77;1.50;;;;;;;12.69;64.08;99324.31;5132822;27;43185;-76
2021/05/20 05:33:13;;;;;;;1.67;1.40;;;;;;;12.72;64.01;99324.13;5091092;28;40592;-76
2021/05/20 05:35:40;;;;;;;1.53;1.40;;;;;;;12.55;64.15;99282.66;5091045;28;41749;-77
2021/05/20 05:38:07;;;;;;;2.80;1.77;;;;;;;12.93;63.97;99322.72;5110906;28;41809;-77
2021/05/20 05:40:35;;;;;;;2.27;1.47;;;;;;;13.05;63.79;99321.94;5144944;27;42925;-77
2021/05/20 05:43:03;;;;;;;2.27;1.70;;;;;;;13.17;63.67;99321.16;5093908;28;38684;-77
2021/05/20 05:45:30;;;;;;;3.30;1.83;;;;;;;13.28;63.00;99329.28;5111324;27;41742;-76
2021/05/20 05:47:57;;;;;;;1.63;1.53;;;;;;;13.49;62.31;99331.47;5127545;27;42084;-77
2021/05/20 05:50:24;;;;;;;4.47;2.20;;;;;;;13.57;62.31;99318.53;5110764;28;41861;-77
2021/05/20 05:52:51;;;;;;;2.03;1.63;;;;;;;13.83;61.65;99338.06;5110126;28;40638;-77
2021/05/20 05:55:19;;;;;;;2.07;1.87;;;;;;;13.97;61.49;99338.78;5109524;28;42776;-77
2021/05/20 05:57:47;;;;;;;3.73;1.87;;;;;;;14.19;60.89;99348.00;5109959;28;41931;-77
2021/05/20 06:00:15;;;;;;;3.00;2.00;;;;;;;14.25;61.09;99359.06;5110870;27;42283;-77
2021/05/20 06:02:45;;;;;;;3.60;2.23;;;;;;;14.29;60.77;99354.38;5109147;27;40631;-77
2021/05/20 06:05:12;;;;;;;2.30;2.10;;;;;;;14.33;60.54;99356.72;5093465;28;42122;-78
2021/05/20 06:07:43;;;;;;;3.17;1.83;;;;;;;14.40;60.54;99354.50;5090653;28;41192;-77
2021/05/20 06:10:11;;;;;;;2.43;2.10;;;;;;;14.41;60.54;99353.53;5099666;28;43128;-76
2021/05/20 06:12:39;;;;;;;2.50;1.83;;;;;;;14.42;60.35;99355.25;5106786;27;40076;-75
2021/05/20 06:15:09;;;;;;;3.20;2.20;;;;;;;14.40;60.62;99362.50;5110292;27;42524;-75
2021/05/20 06:17:37;;;;;;;2.63;2.10;;;;;;;14.33;60.41;99361.22;5093224;28;43922;-73
2021/05/20 06:20:05;;;;;;;3.27;1.83;;;;;;;14.21;60.69;99362.91;5089061;28;42217;-74
2021/05/20 06:22:32;;;;;;;2.30;2.10;;;;;;;14.15;60.87;99367.78;5110099;27;41809;-74
2021/05/20 06:25:00;;;;;;;2.47;1.90;;;;;;;14.07;60.98;99368.34;5108896;27;41306;-75
2021/05/20 06:27:28;;;;;;;2.57;1.73;;;;;;;14.10;61.12;99367.25;5109943;28;42699;-75
2021/05/20 06:29:56;;;;;;;2.13;1.93;;;;;;;14.06;61.12;99363.97;5095770;28;42233;-77
2021/05/20 06:32:24;;;;;;;77.13;54.30;;;;;;;14.07;61.29;99367.47;5109808;28;39761;-76
2021/05/20 06:34:51;;;;;;;15.80;11.50;;;;;;;13.99;61.28;99366.19;5109099;28;40719;-75
2021/05/20 06:37:19;;;;;;;5.83;4.73;;;;;;;14.05;61.54;99375.56;5108921;28;43415;-74
2021/05/20 06:39:46;;;;;;;3.97;2.60;;;;;;;14.08;61.20;99382.50;5109160;28;42644;-76
2021/05/20 06:42:15;;;;;;;3.87;2.20;;;;;;;14.01;61.05;99358.94;5108856;28;39988;-74
2021/05/20 06:44:43;;;;;;;2.97;2.27;;;;;;;14.20;61.37;99381.66;5083168;28;41837;-74
2021/05/20 06:47:10;;;;;;;2.67;2.47;;;;;;;14.29;61.21;99381.03;5106988;28;43352;-75
2021/05/20 06:49:38;;;;;;;2.30;2.07;;;;;;;14.37;61.02;99389.31;5109117;28;43828;-76
2021/05/20 06:52:05;;;;;;;2.20;2.00;;;;;;;14.42;60.69;99387.22;5107990;27;40674;-76
2021/05/20 06:54:33;;;;;;;3.50;2.50;;;;;;;14.46;60.55;99383.41;5108805;28;41642;-75
2021/05/20 06:57:03;;;;;;;3.10;2.80;;;;;;;14.50;60.12;99392.88;5109695;27;42421;-75
2021/05/20 07:02:16;;;;;;;4.63;1.93;;;;;;;14.79;59.97;99395.31;5090150;28;39049;-74
2021/05/20 07:04:44;;;;;;;3.50;2.20;;;;;;;14.91;60.21;99399.75;5087557;28;41780;-74
2021/05/20 07:07:12;;;;;;;2.93;2.50;;;;;;;14.93;59.55;99404.03;5088413;28;42856;-75
2021/05/20 07:09:40;;;;;;;3.37;2.00;;;;;;;15.00;59.62;99412.44;5108374;27;42267;-75
2021/05/20 07:12:08;;;;;;;2.80;2.50;;;;;;;15.12;59.17;99408.88;5108330;28;40925;-75
2021/05/20 07:14:35;;;;;;;2.60;2.27;;;;;;;15.29;58.61;99405.84;5108994;28;40599;-75
2021/05/20 07:17:02;;;;;;;3.93;2.07;;;;;;;15.49;58.65;99396.38;5142736;27;42468;-73
2021/05/20 07:19:30;;;;;;;2.23;2.13;;;;;;;15.78;58.05;99407.59;5110146;27;43253;-75
2021/05/20 07:21:58;;;;;;;2.20;1.93;;;;;;;16.09;57.17;99401.63;5107876;28;39552;-76
2021/05/20 07:24:25;;;;;;;3.30;2.20;;;;;;;16.45;56.54;99400.59;5109582;27;41408;-75
2021/05/20 07:26:53;;;;;;;2.20;2.00;;;;;;;16.95;55.23;99402.94;5109856;27;43238;-75
2021/05/20 07:29:20;;;;;;;3.60;2.10;;;;;;;17.39;53.91;99402.03;5101888;27;42737;-75
2021/05/20 07:31:47;;;;;;;2.33;2.10;;;;;;;17.71;53.36;99415.47;5104751;28;40003;-75
2021/05/20 07:34:14;;;;;;;2.87;2.57;;;;;;;17.76;51.72;99424.00;5107431;28;42147;-75
2021/05/20 07:36:42;;;;;;;2.50;2.30;;;;;;;17.96;51.42;99420.50;5108234;28;42459;-73
2021/05/20 07:39:10;;;;;;;3.20;2.90;;;;;;;18.52;50.59;99417.53;5108360;27;43010;-74
2021/05/20 07:41:37;;;;;;;3.93;2.60;;;;;;;19.12;49.17;99431.97;5089764;28;39957;-77
2021/05/20 07:44:06;;;;;;;3.03;2.60;;;;;;;19.47;48.05;99424.28;5107568;28;42114;-77
2021/05/20 07:46:33;;;;;;;3.40;2.77;;;;;;;19.46;48.15;99430.63;5106221;28;41683;-77
2021/05/20 07:49:00;;;;;;;3.27;3.00;;;;;;;19.42;47.65;99423.81;5095146;27;42908;-76
2021/05/20 07:51:28;;;;;;;4.37;3.00;;;;;;;19.48;47.17;99444.78;5089340;28;39704;-76
2021/05/20 07:53:55;;;;;;;3.13;2.93;;;;;;;19.32;47.43;99429.19;5085776;28;42521;-77
2021/05/20 07:56:23;;;;;;;3.53;3.30;;;;;;;19.22;48.13;99419.41;5086174;28;42345;-76
2021/05/20 07:58:53;;;;;;;5.17;3.77;;;;;;;19.38;47.72;99425.13;5088175;28;43869;-77
2021/05/20 08:01:20;;;;;;;3.97;3.67;;;;;;;20.00;46.12;99413.19;5085677;28;40845;-76
2021/05/20 08:03:49;;;;;;;3.90;3.50;;;;;;;20.82;45.77;99405.41;5102883;28;42687;-77
2021/05/20 08:06:19;;;;;;;5.13;3.37;;;;;;;21.24;43.67;99437.31;5070071;28;42878;-77
2021/05/20 08:08:52;;;;;;;3.50;2.57;;;;;;;21.12;43.90;99432.09;5086628;28;41662;-77
2021/05/20 08:11:20;;;;;;;3.37;3.00;;;;;;;20.84;44.53;99427.66;5086237;28;39927;-76
2021/05/20 08:13:49;;;;;;;3.97;3.67;;;;;;;20.49;45.18;99416.72;5069770;28;40933;-77
2021/05/20 08:16:16;;;;;;;4.27;3.10;;;;;;;20.29;45.30;99432.81;5095989;28;43356;-77
2021/05/20 08:18:43;;;;;;;3.03;2.83;;;;;;;20.05;45.30;99435.09;5106777;28;42503;-77
2021/05/20 08:21:10;;;;;;;3.63;3.33;;;;;;;19.63;46.08;99415.72;5089293;28;38679;-76
2021/05/20 08:23:37;;;;;;;3.53;3.20;;;;;;;19.32;46.50;99428.34;5107149;28;41529;-77
2021/05/20 08:26:07;;;;;;;3.83;3.30;;;;;;;18.97;47.53;99423.41;5086426;28;43189;-76
2021/05/20 08:28:34;;;;;;;4.00;3.10;;;;;;;18.61;48.36;99422.97;5086568;28;41325;-76
2021/05/20 08:31:03;;;;;;;3.60;3.30;;;;;;;18.24;49.65;99410.97;5124632;27;40713;-76
2021/05/20 08:33:30;;;;;;;3.87;3.57;;;;;;;17.96;50.07;99415.13;5107812;27;42889;-77
2021/05/20 08:36:12;;;;;;;4.63;4.03;;;;;;;17.68;50.78;99415.75;5126521;27;20552;-77
2021/05/20 08:38:39;;;;;;;3.23;3.03;;;;;;;17.38;50.63;99377.09;5125405;27;39915;-77
2021/05/20 08:41:06;;;;;;;4.33;3.37;;;;;;;17.55;51.00;99411.38;5125273;27;40737;-77
2021/05/20 08:43:33;;;;;;;4.10;3.80;;;;;;;17.57;51.64;99409.41;5126236;27;42603;-76
2021/05/20 08:46:01;;;;;;;3.43;3.10;;;;;;;17.72;51.21;99406.47;5157349;27;42196;-76
2021/05/20 08:48:28;;;;;;;4.13;3.83;;;;;;;17.99;50.72;99414.88;5105863;27;39762;-77
2021/05/20 08:50:56;;;;;;;4.37;3.97;;;;;;;18.29;49.54;99409.63;5108194;27;40679;-77
2021/05/20 08:53:24;;;;;;;4.93;4.13;;;;;;;19.07;48.18;99423.44;5126486;27;42634;-76
2021/05/20 08:55:51;;;;;;;3.63;3.33;;;;;;;19.98;46.28;99434.84;5124664;27;41386;-76
2021/05/20 08:58:24;;;;;;;3.33;3.03;;;;;;;20.65;45.45;99438.47;5110040;27;40246;-77
2021/05/20 09:00:52;;;;;;;3.97;3.67;;;;;;;21.06;42.83;99450.66;5104052;28;40827;-77
2021/05/20 09:03:20;;;;;;;3.27;2.97;;;;;;;21.14;42.88;99454.31;5105499;27;42328;-76
2021/05/20 09:05:49;;;;;;;4.00;3.67;;;;;;;20.98;43.19;99442.47;5091127;27;42459;-76
2021/05/20 09:08:19;;;;;;;3.53;3.23;;;;;;;20.81;43.01;99452.16;5125667;27;39209;-76
2021/05/20 09:10:48;;;;;;;3.67;3.37;;;;;;;20.47;43.64;99442.91;5126356;27;41908;-76
2021/05/20 09:13:17;;;;;;;3.03;2.83;;;;;;;20.31;44.34;99438.91;5125972;27;43542;-76
2021/05/20 09:15:45;;;;;;;4.23;2.70;;;;;;;20.28;44.68;99431.13;5123831;27;42061;-77
2021/05/20 09:18:15;;;;;;;3.97;2.90;;;;;;;20.60;43.73;99452.38;5115936;27;39893;-76
2021/05/20 09:20:44;;;;;;;3.20;2.90;;;;;;;21.04;43.40;99431.94;5105698;27;41501;-76
2021/05/20 09:23:13;;;;;;;3.40;3.13;;;;;;;21.86;41.43;99472.41;5104455;28;42690;-76
2021/05/20 09:25:42;;;;;;;2.63;2.43;;;;;;;22.35;40.64;99470.19;5148078;27;42605;-76
2021/05/20 09:28:11;;;;;;;3.27;2.80;;;;;;;22.06;40.78;99473.13;5125023;27;39804;-76
2021/05/20 09:30:40;;;;;;;3.60;2.47;;;;;;;21.58;41.07;99434.84;5124414;27;42238;-77
2021/05/20 09:33:09;;;;;;;3.00;2.70;;;;;;;21.55;40.74;99468.31;5124451;27;43452;-77
2021/05/20 09:35:38;;;;;;;2.27;2.03;;;;;;;21.37;40.52;99478.22;5116480;27;41943;-77
2021/05/20 09:38:06;;;;;;;3.87;2.23;;;;;;;21.06;40.17;99467.66;5105042;27;40055;-77
2021/05/20 09:40:37;;;;;;;3.20;2.00;;;;;;;20.84;41.41;99470.72;5137914;27;42833;-77
2021/05/20 09:43:15;;;;;;;2.10;2.00;;;;;;;20.65;42.07;99457.28;5104993;27;43258;-76
2021/05/20 09:45:43;;;;;;;2.67;2.17;;;;;;;20.44;41.95;99444.88;5119125;27;43060;-77
2021/05/20 09:48:11;;;;;;;2.83;2.30;;;;;;;20.31;41.95;99464.97;5093405;28;39149;-77
2021/05/20 09:50:41;;;;;;;2.00;1.87;;;;;;;20.32;42.17;99454.06;5092129;28;41503;-76
2021/05/20 09:53:09;;;;;;;2.87;2.20;;;;;;;20.67;41.18;99444.53;5090042;28;41675;-77
2021/05/20 09:55:43;;;;;;;2.43;2.23;;;;;;;20.88;41.29;99457.84;5089828;28;42306;-76
2021/05/20 09:58:12;;;;;;;2.03;1.90;;;;;;;21.10;41.07;99452.94;5107053;28;39920;-77
2021/05/20 10:00:40;;;;;;;3.60;2.33;;;;;;;21.89;40.31;99468.53;5110262;28;40741;-77
2021/05/20 10:03:09;;;;;;;2.40;2.20;;;;;;;22.48;38.79;99478.75;5110062;28;43188;-77
2021/05/20 10:05:37;;;;;;;3.00;2.70;;;;;;;22.58;38.54;99479.50;5109885;28;42758;-76
2021/05/20 10:08:06;;;;;;;2.20;2.10;;;;;;;22.50;38.46;99476.72;5109183;27;40007;-77
2021/05/20 10:10:36;;;;;;;2.17;1.97;;;;;;;22.42;38.37;99478.50;5111487;27;40596;-77
2021/05/20 10:13:05;;;;;;;2.13;1.80;;;;;;;22.15;38.64;99455.16;5110938;27;43361;-76
2021/05/20 10:15:34;;;;;;;2.50;2.23;;;;;;;22.09;38.40;99478.22;5106990;27;42980;-77
2021/05/20 10:18:07;;;;;;;3.17;2.63;;;;;;;21.98;38.96;99469.47;5091428;28;41088;-76
2021/05/20 10:20:35;;;;;;;2.10;1.90;;;;;;;21.98;38.52;99474.88;5091178;28;42500;-76
2021/05/20 10:23:07;;;;;;;2.47;2.10;;;;;;;22.04;38.74;99468.88;5072581;28;41846;-77
2021/05/20 10:25:36;;;;;;;2.40;2.20;;;;;;;22.35;38.00;99469.34;5090123;28;41399;-76
2021/05/20 10:28:03;;;;;;;1.87;1.73;;;;;;;22.75;38.83;99458.00;5089028;28;38292;-76
2021/05/20 10:30:31;;;;;;;2.47;2.03;;;;;;;23.03;37.51;99462.25;5107617;28;42220;-77
2021/05/20 10:32:59;;;;;;;2.93;2.23;;;;;;;23.46;37.19;99472.09;5109628;28;41828;-77
2021/05/20 10:35:45;;;;;;;2.37;2.17;;;;;;;23.86;35.47;99482.22;5098852;27;42847;-76
2021/05/20 10:38:14;;;;;;;2.07;1.90;;;;;;;24.07;35.33;99478.22;5123217;27;40393;-77
2021/05/20 10:40:41;;;;;;;2.67;2.00;;;;;;;24.47;35.51;99470.16;5106927;28;42055;-77
2021/05/20 10:43:14;;;;;;;2.40;2.20;;;;;;;25.04;34.91;99461.97;5108583;28;42656;-77
2021/05/20 10:45:42;;;;;;;3.10;2.10;;;;;;;25.12;35.46;99431.28;5109851;28;41962;-77
2021/05/20 10:48:26;;;;;;;2.37;2.13;;;;;;;25.60;34.43;99457.34;5109457;28;39792;-77
2021/05/20 10:50:59;;;;;;;1.60;1.50;;;;;;;25.69;32.84;99475.34;5080953;28;40648;-77
2021/05/20 10:53:48;;;;;;;2.40;1.67;;;;;;;25.90;32.91;99471.97;5089131;28;43153;-77
2021/05/20 10:56:50;;;;;;;2.03;1.93;;;;;;;26.37;32.58;99461.00;5088559;28;41667;-77
2021/05/20 10:59:50;;;;;;;1.77;1.60;;;;;;;26.92;31.75;99459.81;5104055;28;39810;-77
2021/05/20 11:02:54;;;;;;;2.97;2.23;;;;;;;26.84;31.30;99452.56;5107856;27;42585;-77
2021/05/20 11:05:56;;;;;;;2.40;2.00;;;;;;;27.03;30.36;99470.25;5106153;28;43541;-77
2021/05/20 11:08:56;;;;;;;2.00;1.90;;;;;;;26.93;31.10;99456.09;5105918;28;42599;-77
2021/05/20 11:11:56;;;;;;;2.30;2.03;;;;;;;26.83;29.77;99457.16;5090344;28;39966;-77
2021/05/20 11:14:38;;;;;;;2.20;1.77;;;;;;;26.01;31.03;99445.28;5083952;28;41146;-77
2021/05/20 11:17:36;;;;;;;2.03;1.83;;;;;;;26.00;31.32;99438.16;5105544;28;42468;-77
2021/05/20 11:20:31;;;;;;;2.43;1.53;;;;;;;26.34;31.37;99436.91;5104565;28;42444;-77
2021/05/20 11:23:23;;;;;;;3.93;1.73;;;;;;;26.72;31.84;99422.28;5088348;28;40017;-78
2021/05/20 11:26:11;;;;;;;2.90;1.60;;;;;;;27.00;29.24;99446.16;5088981;28;42468;-78
2021/05/20 11:28:58;;;;;;;2.67;1.67;;;;;;;27.19;29.70;99432.00;5108838;28;42901;-77
2021/05/20 11:31:26;;;;;;;1.90;1.70;;;;;;;27.13;29.46;99432.75;5108670;28;43614;-76
2021/05/20 11:34:11;;;;;;;1.83;1.60;;;;;;;27.25;29.12;99431.25;5081053;28;38679;-77
2021/05/20 11:36:41;;;;;;;2.23;1.60;;;;;;;28.36;27.70;99433.59;5105555;28;40790;-76
2021/05/20 11:39:13;;;;;;;2.13;1.27;;;;;;;29.09;28.49;99412.34;5087851;28;41719;-76
2021/05/20 11:41:43;;;;;;;2.57;1.60;;;;;;;30.96;25.65;99442.47;5071449;28;41134;-77
2021/05/20 11:44:12;;;;;;;1.40;1.20;;;;;;;30.99;24.96;99441.19;5087865;28;39011;-77
2021/05/20 11:46:44;;;;;;;1.60;1.50;;;;;;;30.59;25.01;99418.53;5077122;28;41436;-77